Time;durP1;ratioP1;P1;durP2;ratioP2;P2;SDS_P1;SDS_P2;PMS_P1;PMS_P2;Temp;Humidity;BMP_temperature;BMP_pressure;BME280_temperature;BME280_humidity;BME280_pressure;Samples;Min_cycle;Max_cycle;Signal;HPM_P1;HPM_P2
2021/10/08 00:00:55;;;;;;;13.43;7.70;;;;;;;3.51;63.15;102573.23;1739801;81;21588;-72
2021/10/08 00:03:21;;;;;;;10.63;7.05;;;;;;;3.52;63.24;102572.23;1739773;80;21010;-71
2021/10/08 00:05:48;;;;;;;12.13;7.60;;;;;;;3.52;63.30;102570.91;1721288;81;21079;-71
2021/10/08 00:08:14;;;;;;;11.85;6.85;;;;;;;3.51;63.36;102574.05;1710798;81;21138;-70
2021/10/08 00:10:41;;;;;;;11.33;7.00;;;;;;;3.51;63.48;102574.05;1726121;81;21608;-71
2021/10/08 00:13:09;;;;;;;13.90;7.03;;;;;;;3.49;63.62;102576.05;1723769;81;21061;-71
2021/10/08 00:15:36;;;;;;;12.65;7.28;;;;;;;3.47;63.64;102574.05;1721035;81;21138;-71
2021/10/08 00:18:03;;;;;;;12.00;7.22;;;;;;;3.44;63.79;102573.05;1742984;81;21024;-72
2021/10/08 00:20:31;;;;;;;10.30;6.62;;;;;;;3.40;63.80;102573.03;1747158;81;21034;-71
2021/10/08 00:22:58;;;;;;;10.08;6.42;;;;;;;3.37;63.82;102574.67;1741984;81;21105;-69
2021/10/08 00:25:24;;;;;;;12.47;7.20;;;;;;;3.34;63.91;102573.67;1734991;81;21046;-72
2021/10/08 00:27:51;;;;;;;14.05;7.35;;;;;;;3.31;63.97;102579.27;1737365;81;21057;-71
2021/10/08 00:30:18;;;;;;;11.97;7.05;;;;;;;3.28;64.09;102576.95;1731126;81;21131;-71
2021/10/08 00:32:45;;;;;;;13.20;7.37;;;;;;;3.27;64.24;102578.77;1732493;81;21853;-71
2021/10/08 00:35:14;;;;;;;12.93;7.80;;;;;;;3.25;64.29;102574.12;1698662;82;21584;-72
2021/10/08 00:37:41;;;;;;;11.48;7.40;;;;;;;3.25;64.33;102578.58;1747156;81;21006;-71
2021/10/08 00:40:11;;;;;;;12.75;7.53;;;;;;;3.26;64.34;102577.61;1735758;81;21495;-70
2021/10/08 00:42:47;;;;;;;12.00;7.45;;;;;;;3.26;64.39;102581.58;1741800;81;21058;-72
2021/10/08 00:45:35;;;;;;;13.98;7.10;;;;;;;3.26;64.38;102579.76;1723342;80;21054;-71
2021/10/08 00:48:05;;;;;;;9.33;6.80;;;;;;;3.25;64.47;102578.58;1748902;81;21031;-71
2021/10/08 00:50:37;;;;;;;11.12;7.33;;;;;;;3.25;64.52;102578.58;1741497;81;21555;-71
2021/10/08 00:53:05;;;;;;;13.03;8.30;;;;;;;3.21;64.62;102573.29;1688781;81;21031;-71
2021/10/08 00:55:35;;;;;;;14.78;7.90;;;;;;;3.19;64.87;102575.25;1746766;80;21057;-71
2021/10/08 00:58:02;;;;;;;12.55;7.85;;;;;;;3.18;65.06;102577.56;1735382;81;21536;-70
2021/10/08 01:00:29;;;;;;;12.95;7.87;;;;;;;3.19;65.28;102579.20;1693750;80;21066;-71
2021/10/08 01:02:56;;;;;;;12.23;7.70;;;;;;;3.18;65.39;102581.03;1745358;81;21034;-70
2021/10/08 01:05:23;;;;;;;10.50;6.70;;;;;;;3.19;65.43;102580.53;1744198;81;21057;-71
2021/10/08 01:07:50;;;;;;;10.35;6.42;;;;;;;3.17;65.57;102575.92;1745259;81;20990;-71
2021/10/08 01:10:17;;;;;;;11.88;6.83;;;;;;;3.12;65.77;102571.09;1755138;81;22387;-70
2021/10/08 01:12:45;;;;;;;10.40;6.67;;;;;;;3.10;65.80;102573.58;1747872;80;21580;-71
2021/10/08 01:15:13;;;;;;;10.78;6.72;;;;;;;3.05;65.82;102574.86;1733740;81;21558;-72
2021/10/08 01:17:42;;;;;;;9.78;5.85;;;;;;;3.02;65.86;102580.45;1749317;81;21025;-71
2021/10/08 01:20:12;;;;;;;13.65;7.42;;;;;;;3.00;65.93;102580.30;1726479;81;21557;-70
2021/10/08 01:22:41;;;;;;;10.85;6.97;;;;;;;2.96;65.91;102575.83;1727430;81;21792;-71
2021/10/08 01:25:09;;;;;;;10.93;6.58;;;;;;;2.96;65.96;102574.50;1748200;81;20964;-71
2021/10/08 01:27:36;;;;;;;11.12;6.65;;;;;;;2.94;66.07;102574.31;1758829;80;21014;-72
2021/10/08 01:30:07;;;;;;;11.65;6.70;;;;;;;2.92;66.18;102582.87;1750321;81;21058;-71
2021/10/08 01:32:36;;;;;;;13.05;7.03;;;;;;;2.92;66.23;102586.34;1737070;81;20987;-70
2021/10/08 01:35:05;;;;;;;11.33;6.92;;;;;;;2.90;66.23;102588.33;1738660;80;21995;-72
2021/10/08 01:37:33;;;;;;;12.75;7.25;;;;;;;2.88;66.27;102584.18;1741055;81;21073;-70
2021/10/08 01:40:03;;;;;;;12.13;7.17;;;;;;;2.87;66.25;102585.17;1744448;81;21596;-71
2021/10/08 01:42:31;;;;;;;11.03;7.42;;;;;;;2.85;66.22;102583.17;1741253;81;22139;-71
2021/10/08 01:44:59;;;;;;;12.37;7.72;;;;;;;2.84;66.29;102588.94;1740276;81;21090;-72
2021/10/08 01:47:27;;;;;;;10.85;7.20;;;;;;;2.84;66.40;102594.22;1741141;81;21409;-72
2021/10/08 01:49:55;;;;;;;9.13;6.10;;;;;;;2.84;66.52;102587.62;1732165;81;21110;-72
2021/10/08 01:52:23;;;;;;;10.43;6.37;;;;;;;2.81;66.65;102587.44;1748656;80;20999;-72
2021/10/08 01:54:50;;;;;;;10.53;6.20;;;;;;;2.78;66.70;102592.20;1714175;81;21133;-72
2021/10/08 01:57:17;;;;;;;11.00;6.35;;;;;;;2.76;66.79;102595.01;1735587;81;21038;-72
2021/10/08 01:59:46;;;;;;;8.83;6.15;;;;;;;2.75;66.79;102601.74;1736037;80;21347;-72
2021/10/08 02:02:13;;;;;;;11.28;7.72;;;;;;;2.72;66.82;102599.41;1737941;81;21002;-72
2021/10/08 02:04:40;;;;;;;10.20;7.53;;;;;;;2.69;66.85;102599.72;1748960;81;21605;-73
2021/10/08 02:07:07;;;;;;;11.15;7.65;;;;;;;2.65;66.97;102593.10;1729938;81;21587;-72
2021/10/08 02:09:34;;;;;;;10.10;7.25;;;;;;;2.63;67.19;102602.97;1751429;81;21694;-72
2021/10/08 02:12:01;;;;;;;11.35;7.53;;;;;;;2.61;67.27;102594.40;1735381;80;21104;-72
2021/10/08 02:14:30;;;;;;;10.43;6.85;;;;;;;2.58;67.48;102602.95;1710816;80;21041;-72
2021/10/08 02:16:57;;;;;;;10.78;6.95;;;;;;;2.53;67.72;102605.70;1688000;83;21476;-73
2021/10/08 02:19:23;;;;;;;12.40;7.72;;;;;;;2.46;67.69;102605.48;1739652;81;21018;-72
2021/10/08 02:21:52;;;;;;;11.90;7.47;;;;;;;2.44;67.86;102610.10;1746157;80;21200;-71
2021/10/08 02:24:19;;;;;;;10.38;7.20;;;;;;;2.42;68.08;102602.00;1721511;81;21051;-71
2021/10/08 02:26:48;;;;;;;12.25;7.60;;;;;;;2.40;68.19;102610.05;1713683;81;21027;-71
2021/10/08 02:29:16;;;;;;;14.73;7.20;;;;;;;2.37;68.13;102610.38;1752849;81;21493;-71
2021/10/08 02:31:44;;;;;;;11.83;7.25;;;;;;;2.37;68.16;102611.70;1742639;81;21521;-71
2021/10/08 02:34:10;;;;;;;9.20;6.97;;;;;;;2.37;68.01;102613.02;1732275;80;21113;-70
2021/10/08 02:36:37;;;;;;;13.32;7.30;;;;;;;2.39;68.06;102618.12;1745488;80;21142;-71
2021/10/08 02:39:04;;;;;;;11.50;7.42;;;;;;;2.38;67.92;102616.47;1740646;81;21192;-71
2021/10/08 02:41:31;;;;;;;10.85;7.85;;;;;;;2.38;67.89;102620.44;1746354;81;20998;-70
2021/10/08 02:43:59;;;;;;;10.90;6.90;;;;;;;2.38;67.93;102622.58;1744613;80;21046;-71
2021/10/08 02:46:27;;;;;;;13.58;8.28;;;;;;;2.38;68.08;102621.25;1752039;81;21105;-72
2021/10/08 02:48:55;;;;;;;13.22;7.40;;;;;;;2.34;68.11;102622.55;1749499;81;21178;-70
2021/10/08 02:51:22;;;;;;;12.95;8.48;;;;;;;2.34;68.24;102622.55;1737528;81;21049;-71
2021/10/08 02:53:49;;;;;;;11.33;7.87;;;;;;;2.30;68.25;102623.80;1740807;80;21050;-71
2021/10/08 02:56:16;;;;;;;15.00;8.63;;;;;;;2.30;68.29;102625.98;1737495;81;21136;-71
2021/10/08 02:58:44;;;;;;;13.10;8.50;;;;;;;2.29;68.26;102634.84;1753373;81;21576;-72
2021/10/08 03:01:11;;;;;;;12.70;8.08;;;;;;;2.27;68.27;102634.66;1693970;82;21208;-72
2021/10/08 03:03:38;;;;;;;12.82;8.18;;;;;;;2.24;68.22;102631.85;1736993;80;21101;-71
2021/10/08 03:06:05;;;;;;;11.50;8.05;;;;;;;2.21;68.26;102635.28;1749462;81;21092;-72
2021/10/08 03:08:33;;;;;;;13.55;8.60;;;;;;;2.19;68.24;102637.23;1744770;81;21137;-71
2021/10/08 03:11:00;;;;;;;12.18;8.20;;;;;;;2.19;68.29;102642.00;1726316;82;21026;-72
2021/10/08 03:13:27;;;;;;;13.78;6.70;;;;;;;2.20;68.30;102640.20;1743481;80;21157;-72
2021/10/08 03:15:54;;;;;;;13.85;8.90;;;;;;;2.20;68.18;102635.75;1743627;81;21003;-72
2021/10/08 03:18:22;;;;;;;10.78;7.75;;;;;;;2.21;68.14;102645.83;1731561;81;20975;-71
2021/10/08 03:20:50;;;;;;;12.73;8.05;;;;;;;2.23;68.09;102650.44;1746466;81;21120;-72
2021/10/08 03:23:19;;;;;;;12.13;7.65;;;;;;;2.22;67.98;102646.16;1744878;81;20975;-71
2021/10/08 03:25:46;;;;;;;12.28;8.05;;;;;;;2.23;67.94;102653.08;1735429;81;21870;-72
2021/10/08 03:28:16;;;;;;;11.88;9.03;;;;;;;2.24;67.94;102657.39;1743156;81;21069;-72
2021/10/08 03:34:02;;;;;;;11.70;7.97;;;;;;;2.24;67.91;102659.54;1746304;80;21520;-71
2021/10/08 03:36:38;;;;;;;11.28;7.58;;;;;;;2.24;67.97;102666.12;1737198;81;21113;-72
2021/10/08 03:38:59;;;;;;;9.98;6.90;;;;;;;2.23;68.01;102663.63;1743985;81;21164;-72
2021/10/08 03:41:26;;;;;;;13.20;7.87;;;;;;;2.23;68.18;102666.27;1736589;80;21094;-72
2021/10/08 03:43:55;;;;;;;14.68;8.53;;;;;;;2.23;68.26;102668.90;1747535;80;21125;-72
2021/10/08 03:46:25;;;;;;;11.33;7.85;;;;;;;2.25;68.26;102672.23;1752455;81;21607;-72
2021/10/08 03:51:36;;;;;;;11.85;7.78;;;;;;;2.31;68.10;102671.63;1738071;81;21161;-71
2021/10/08 03:54:03;;;;;;;9.85;6.75;;;;;;;2.35;68.02;102669.85;1739645;81;21053;-71
2021/10/08 03:56:30;;;;;;;11.43;7.33;;;;;;;2.39;67.99;102670.87;1752282;81;21180;-72
2021/10/08 03:58:58;;;;;;;9.60;6.87;;;;;;;2.42;67.91;102671.39;1750034;81;21097;-72
2021/10/08 04:01:25;;;;;;;10.45;7.10;;;;;;;2.44;67.90;102673.90;1741972;80;21045;-71
2021/10/08 04:03:53;;;;;;;11.97;8.23;;;;;;;2.45;67.94;102673.73;1703066;83;21529;-72
2021/10/08 04:06:20;;;;;;;9.70;6.67;;;;;;;2.48;67.92;102672.61;1746185;81;21470;-72
2021/10/08 04:08:48;;;;;;;12.82;7.97;;;;;;;2.51;67.93;102672.30;1746108;81;21018;-72
2021/10/08 04:11:16;;;;;;;11.25;7.75;;;;;;;2.52;67.89;102667.36;1738588;80;21097;-71
2021/10/08 04:13:43;;;;;;;11.65;8.33;;;;;;;2.55;67.78;102669.20;1712070;81;21220;-72
2021/10/08 04:16:10;;;;;;;12.63;8.10;;;;;;;2.61;67.62;102668.27;1744359;81;21603;-73
2021/10/08 04:18:38;;;;;;;10.85;7.40;;;;;;;2.64;67.42;102670.61;1714340;81;21045;-73
2021/10/08 04:21:07;;;;;;;12.58;8.05;;;;;;;2.69;67.39;102667.83;1743217;80;21098;-72
2021/10/08 04:23:34;;;;;;;12.73;8.23;;;;;;;2.74;67.16;102660.79;1745289;81;21030;-71
2021/10/08 04:26:01;;;;;;;12.23;8.20;;;;;;;2.79;66.97;102669.05;1740993;80;21006;-72
2021/10/08 04:28:28;;;;;;;11.95;7.70;;;;;;;2.87;66.86;102670.45;1743745;81;21054;-72
2021/10/08 04:30:55;;;;;;;10.85;7.53;;;;;;;2.95;66.84;102674.45;1748789;81;21121;-72
2021/10/08 04:33:25;;;;;;;10.98;7.65;;;;;;;3.01;66.70;102671.20;1737092;81;21700;-72
2021/10/08 04:36:02;;;;;;;11.78;7.50;;;;;;;3.09;66.50;102666.45;1754777;81;21647;-72
2021/10/08 04:38:28;;;;;;;12.23;7.37;;;;;;;3.15;66.61;102670.30;1738818;81;20994;-72
2021/10/08 04:40:55;;;;;;;12.15;7.72;;;;;;;3.23;66.38;102675.64;1743841;81;21168;-72
2021/10/08 04:43:22;;;;;;;13.38;8.48;;;;;;;3.28;66.06;102676.81;1746259;81;21556;-71
2021/10/08 04:45:49;;;;;;;18.35;9.35;;;;;;;3.34;65.84;102677.18;1750353;80;21085;-72
2021/10/08 04:48:16;;;;;;;27.67;14.78;;;;;;;3.41;65.76;102675.56;1740141;80;21560;-72
2021/10/08 04:50:44;;;;;;;19.02;11.73;;;;;;;3.44;65.48;102674.75;1744169;81;21580;-72
2021/10/08 04:53:20;;;;;;;15.72;9.70;;;;;;;3.50;65.23;102679.41;1716296;81;21106;-72
2021/10/08 04:55:48;;;;;;;14.13;8.93;;;;;;;3.58;65.11;102676.47;1751233;81;21572;-72
2021/10/08 04:58:17;;;;;;;14.50;8.93;;;;;;;3.63;65.08;102680.80;1744137;81;21116;-71
2021/10/08 05:00:45;;;;;;;12.95;8.75;;;;;;;3.70;65.09;102679.17;1740708;81;21018;-72
2021/10/08 05:03:14;;;;;;;13.48;9.15;;;;;;;3.77;64.79;102678.86;1741483;80;21002;-72
2021/10/08 05:05:54;;;;;;;12.40;8.70;;;;;;;3.83;64.47;102680.87;1741815;80;21025;-72
2021/10/08 05:08:20;;;;;;;12.43;8.65;;;;;;;3.86;63.94;102683.20;1726774;81;21049;-73
2021/10/08 05:10:48;;;;;;;12.28;8.68;;;;;;;3.88;63.94;102681.23;1732159;81;21141;-72
2021/10/08 05:13:15;;;;;;;12.28;8.38;;;;;;;3.90;63.81;102679.23;1740797;80;21113;-72
2021/10/08 05:15:42;;;;;;;12.90;8.98;;;;;;;3.93;63.60;102689.49;1732460;80;21061;-72
2021/10/08 05:18:10;;;;;;;11.95;8.28;;;;;;;3.93;63.64;102686.84;1738659;81;21939;-72
2021/10/08 05:20:38;;;;;;;14.20;9.48;;;;;;;3.91;63.47;102683.53;1743561;81;21008;-73
2021/10/08 05:23:05;;;;;;;12.10;8.45;;;;;;;3.89;63.22;102684.20;1740491;79;20900;-73
2021/10/08 05:25:32;;;;;;;16.93;9.78;;;;;;;3.88;63.24;102690.48;1755510;81;21021;-72
2021/10/08 05:27:59;;;;;;;14.80;8.95;;;;;;;3.84;63.05;102689.12;1753067;79;21015;-70
2021/10/08 05:30:26;;;;;;;12.75;8.58;;;;;;;3.80;63.35;102690.44;1742777;80;21179;-72
2021/10/08 05:32:53;;;;;;;13.80;9.40;;;;;;;3.81;63.73;102683.33;1729977;81;20950;-72
2021/10/08 05:35:21;;;;;;;13.18;8.68;;;;;;;3.82;63.57;102682.33;1747566;81;21042;-72
2021/10/08 05:37:48;;;;;;;13.62;8.85;;;;;;;3.86;63.57;102687.16;1744101;81;21002;-71
2021/10/08 05:40:15;;;;;;;14.43;8.43;;;;;;;3.94;63.40;102692.96;1742496;80;21077;-71
2021/10/08 05:42:44;;;;;;;13.00;7.70;;;;;;;3.97;63.28;102693.47;1748427;81;21158;-71
2021/10/08 05:45:11;;;;;;;11.15;7.37;;;;;;;4.03;63.19;102693.33;1741764;81;21188;-72
2021/10/08 05:47:38;;;;;;;13.45;9.33;;;;;;;4.09;63.28;102691.36;1732941;80;21007;-72
2021/10/08 05:50:07;;;;;;;12.25;8.45;;;;;;;4.18;63.31;102694.87;1747891;81;20967;-71
2021/10/08 05:52:34;;;;;;;12.50;8.80;;;;;;;4.25;63.06;102700.34;1752929;81;21474;-72
2021/10/08 05:55:02;;;;;;;14.10;9.78;;;;;;;4.31;63.18;102694.37;1733555;81;21138;-71
2021/10/08 05:57:29;;;;;;;12.33;8.53;;;;;;;4.37;63.06;102691.90;1751230;80;21553;-71
2021/10/08 05:59:56;;;;;;;12.80;8.48;;;;;;;4.42;62.96;102694.89;1751754;81;21552;-71
2021/10/08 06:02:22;;;;;;;14.35;10.03;;;;;;;4.48;62.81;102691.28;1740346;81;21501;-72
2021/10/08 06:04:50;;;;;;;13.85;9.65;;;;;;;4.54;62.19;102693.23;1735600;81;21018;-72
2021/10/08 06:07:16;;;;;;;14.47;10.80;;;;;;;4.58;61.88;102701.20;1740088;81;21151;-71
2021/10/08 06:09:46;;;;;;;14.53;10.43;;;;;;;4.63;61.87;102704.99;1739012;80;21516;-71
2021/10/08 06:12:14;;;;;;;13.65;9.70;;;;;;;4.69;61.64;102701.69;1733783;80;21088;-71
2021/10/08 06:14:42;;;;;;;15.32;9.85;;;;;;;4.73;61.29;102704.83;1736851;80;21008;-72
2021/10/08 06:17:09;;;;;;;13.58;8.78;;;;;;;4.81;61.40;102700.87;1738194;80;21213;-73
2021/10/08 06:19:36;;;;;;;16.50;8.70;;;;;;;4.90;61.39;102698.56;1738324;81;21788;-73
2021/10/08 06:22:03;;;;;;;13.38;9.08;;;;;;;5.01;60.81;102705.33;1746596;80;21144;-72
2021/10/08 06:24:30;;;;;;;15.75;9.80;;;;;;;5.06;60.23;102702.17;1742757;81;21038;-72
2021/10/08 06:26:59;;;;;;;13.93;9.15;;;;;;;5.05;59.88;102701.34;1732606;81;21070;-73
2021/10/08 06:29:26;;;;;;;16.82;9.95;;;;;;;5.07;60.11;102701.20;1734408;80;21014;-72
2021/10/08 06:31:54;;;;;;;13.45;9.98;;;;;;;5.14;60.31;102703.50;1737000;81;21133;-72
2021/10/08 06:34:21;;;;;;;15.50;9.78;;;;;;;5.25;60.08;102697.84;1742582;81;21011;-72
2021/10/08 06:36:48;;;;;;;14.00;9.58;;;;;;;5.35;59.68;102693.67;1742824;81;21133;-74
2021/10/08 06:39:14;;;;;;;13.15;9.50;;;;;;;5.42;59.62;102690.67;1738907;81;21077;-73
2021/10/08 06:41:41;;;;;;;13.70;9.20;;;;;;;5.51;58.98;102687.50;1740650;81;21111;-76
2021/10/08 06:44:19;;;;;;;13.62;9.30;;;;;;;5.58;58.50;102695.92;1737698;81;21132;-74
2021/10/08 06:46:46;;;;;;;15.25;10.05;;;;;;;5.64;58.55;102691.27;1745150;81;21164;-75
2021/10/08 06:49:13;;;;;;;11.88;8.78;;;;;;;5.74;58.16;102691.05;1702552;82;21219;-75
2021/10/08 06:51:41;;;;;;;12.60;9.00;;;;;;;5.86;57.95;102696.82;1740948;80;21101;-73
2021/10/08 06:54:08;;;;;;;15.88;9.55;;;;;;;5.94;57.42;102693.32;1735191;81;21122;-73
2021/10/08 06:56:35;;;;;;;10.65;8.40;;;;;;;6.04;57.35;102689.45;1743998;80;21138;-72
2021/10/08 06:59:13;;;;;;;12.40;8.93;;;;;;;6.17;57.34;102688.88;1718246;81;21568;-73
2021/10/08 07:01:51;;;;;;;14.58;9.33;;;;;;;6.33;56.72;102687.45;1743956;81;21122;-72
2021/10/08 07:04:18;;;;;;;14.60;9.63;;;;;;;6.45;55.72;102681.72;1722387;81;21660;-72
2021/10/08 07:06:46;;;;;;;13.98;9.35;;;;;;;6.57;55.65;102684.29;1743507;81;21124;-72
2021/10/08 07:09:15;;;;;;;11.83;8.53;;;;;;;6.68;55.66;102679.91;1740374;80;21861;-70
2021/10/08 07:11:43;;;;;;;13.70;9.03;;;;;;;6.79;55.03;102683.44;1744392;80;21105;-73
2021/10/08 07:14:10;;;;;;;9.18;7.42;;;;;;;6.88;55.08;102680.22;1739017;81;21666;-72
2021/10/08 07:16:37;;;;;;;13.93;8.80;;;;;;;7.00;55.00;102680.08;1745555;80;21053;-70
2021/10/08 07:19:08;;;;;;;12.98;8.40;;;;;;;7.14;54.49;102673.64;1739812;80;21524;-72
2021/10/08 07:21:33;;;;;;;10.25;8.10;;;;;;;7.27;54.11;102673.36;1723858;81;21888;-71
2021/10/08 07:24:01;;;;;;;12.05;9.38;;;;;;;7.41;53.85;102673.03;1741495;81;21542;-71
2021/10/08 07:26:31;;;;;;;10.15;7.70;;;;;;;7.52;52.90;102672.55;1696828;82;21109;-70
2021/10/08 07:28:58;;;;;;;12.98;7.40;;;;;;;7.64;53.23;102675.58;1744215;81;21067;-70
2021/10/08 07:31:24;;;;;;;11.35;7.08;;;;;;;7.78;51.46;102674.41;1741576;81;21077;-71
2021/10/08 07:33:51;;;;;;;11.85;7.15;;;;;;;7.90;50.75;102662.29;1738289;81;21085;-69
2021/10/08 07:36:18;;;;;;;12.30;6.65;;;;;;;8.02;50.98;102667.41;1745703;80;20979;-71
2021/10/08 07:38:46;;;;;;;12.10;6.90;;;;;;;8.16;49.81;102667.05;1750161;81;21074;-71
2021/10/08 07:41:12;;;;;;;9.03;6.15;;;;;;;8.25;48.42;102666.43;1741122;81;21117;-71
2021/10/08 07:43:40;;;;;;;8.83;5.80;;;;;;;8.33;48.57;102663.66;1741398;81;21021;-72
2021/10/08 07:46:08;;;;;;;10.15;6.90;;;;;;;8.45;48.09;102660.81;1744086;81;21734;-70
2021/10/08 07:48:36;;;;;;;10.05;6.35;;;;;;;8.56;48.67;102656.32;1747043;81;21497;-70
2021/10/08 07:51:03;;;;;;;10.03;6.53;;;;;;;8.71;48.29;102652.73;1744583;80;21564;-72
2021/10/08 07:53:31;;;;;;;10.00;6.45;;;;;;;8.79;47.37;102652.61;1739526;80;21086;-73
2021/10/08 07:55:58;;;;;;;10.82;6.47;;;;;;;8.90;47.11;102650.73;1742409;81;21061;-71
2021/10/08 07:58:28;;;;;;;8.53;4.95;;;;;;;9.01;46.57;102652.85;1728304;82;21491;-72
2021/10/08 08:00:59;;;;;;;8.93;5.70;;;;;;;9.17;45.23;102650.39;1741541;80;21135;-71
2021/10/08 08:03:26;;;;;;;10.60;5.47;;;;;;;9.31;45.70;102645.95;1747591;81;21116;-72
2021/10/08 08:05:54;;;;;;;10.63;5.35;;;;;;;9.46;45.13;102653.32;1740028;81;20994;-70
2021/10/08 08:08:21;;;;;;;7.45;4.78;;;;;;;9.59;45.29;102654.72;1738473;81;21559;-70
2021/10/08 08:10:50;;;;;;;8.23;5.92;;;;;;;9.75;44.69;102654.06;1738185;81;21096;-72
2021/10/08 08:13:17;;;;;;;7.00;4.75;;;;;;;9.90;44.29;102650.71;1742646;81;21110;-70
2021/10/08 08:15:44;;;;;;;9.48;4.62;;;;;;;10.03;43.67;102652.59;1745081;81;21070;-70
2021/10/08 08:18:18;;;;;;;7.50;4.62;;;;;;;10.12;42.65;102646.05;1737061;81;20971;-70
2021/10/08 08:20:53;;;;;;;7.03;4.55;;;;;;;10.22;41.83;102643.81;1743870;80;20954;-71
2021/10/08 08:23:20;;;;;;;7.92;3.33;;;;;;;10.35;41.34;102642.22;1721305;80;21444;-71
2021/10/08 08:25:49;;;;;;;8.10;3.22;;;;;;;10.44;38.89;102643.16;1747561;81;21083;-70
2021/10/08 08:28:17;;;;;;;13.65;3.08;;;;;;;10.50;38.44;102636.99;1746667;81;21028;-73
2021/10/08 08:30:45;;;;;;;10.35;3.17;;;;;;;10.59;37.88;102639.45;1727937;81;21019;-68
2021/10/08 08:33:12;;;;;;;7.80;3.80;;;;;;;10.68;38.35;102635.55;1723625;81;21181;-72
2021/10/08 08:35:39;;;;;;;38.15;20.05;;;;;;;10.78;37.44;102634.09;1675417;83;22033;-70
2021/10/08 08:38:06;;;;;;;49.67;31.20;;;;;;;10.87;37.27;102629.36;1702850;82;20972;-69
2021/10/08 08:40:35;;;;;;;26.75;17.27;;;;;;;10.94;37.49;102626.16;1743455;81;21442;-69
2021/10/08 08:43:03;;;;;;;34.05;20.00;;;;;;;11.02;37.51;102625.95;1704020;82;21060;-70
2021/10/08 08:45:32;;;;;;;9.20;4.95;;;;;;;11.11;36.27;102631.05;1739317;80;21026;-71
2021/10/08 08:48:06;;;;;;;6.33;2.70;;;;;;;11.16;37.13;102621.91;1719683;81;21133;-71
2021/10/08 08:50:39;;;;;;;7.30;3.15;;;;;;;11.18;35.75;102627.84;1742592;81;21057;-71
2021/10/08 08:53:07;;;;;;;6.58;2.70;;;;;;;11.18;35.87;102619.82;1746310;81;21153;-70
2021/10/08 08:55:35;;;;;;;7.35;2.90;;;;;;;11.21;35.18;102622.08;1745089;80;21057;-69
2021/10/08 08:58:02;;;;;;;18.32;4.58;;;;;;;11.22;35.08;102610.34;1712123;81;21002;-68
2021/10/08 09:00:28;;;;;;;6.40;2.90;;;;;;;11.23;35.42;102616.02;1752324;81;21123;-71
2021/10/08 09:03:02;;;;;;;7.80;2.87;;;;;;;11.23;34.55;102614.16;1746458;81;21356;-72
2021/10/08 09:05:32;;;;;;;6.37;2.77;;;;;;;11.20;34.59;102615.09;1746027;81;21290;-72
2021/10/08 09:08:07;;;;;;;6.42;2.50;;;;;;;11.21;34.75;102613.53;1729428;81;21257;-71
2021/10/08 09:10:38;;;;;;;15.00;6.17;;;;;;;11.22;34.68;102615.20;1739984;81;21042;-72
2021/10/08 09:13:05;;;;;;;9.10;5.30;;;;;;;11.27;35.14;102620.72;1731212;81;21711;-70
2021/10/08 09:15:51;;;;;;;23.98;14.18;;;;;;;11.35;35.22;102613.00;1719205;82;20995;-71
2021/10/08 09:18:20;;;;;;;23.63;10.53;;;;;;;11.42;34.85;102611.62;1740560;81;21065;-70
2021/10/08 09:21:09;;;;;;;20.27;6.55;;;;;;;11.49;34.41;102603.87;1738222;80;22248;-70
2021/10/08 09:23:41;;;;;;;13.23;7.33;;;;;;;11.54;33.71;102598.39;1744351;81;21078;-70
2021/10/08 09:26:24;;;;;;;5.53;2.23;;;;;;;11.60;32.87;102600.22;1741468;81;21788;-69
2021/10/08 09:29:03;;;;;;;6.20;2.23;;;;;;;11.62;32.68;102601.66;1741755;81;21762;-72
2021/10/08 09:31:42;;;;;;;4.93;2.00;;;;;;;11.63;32.95;102603.80;1743436;81;21735;-71
2021/10/08 09:34:18;;;;;;;16.17;8.40;;;;;;;11.63;33.01;102586.41;1756039;81;21313;-72
2021/10/08 09:36:52;;;;;;;13.70;7.87;;;;;;;11.72;33.18;102588.63;1740486;81;21798;-72
2021/10/08 09:39:20;;;;;;;5.80;3.07;;;;;;;11.81;33.81;102585.15;1749913;81;21767;-71
2021/10/08 09:41:58;;;;;;;13.73;7.20;;;;;;;11.88;34.08;102585.98;1748136;81;21162;-71
2021/10/08 09:44:25;;;;;;;5.47;3.10;;;;;;;11.95;34.11;102581.93;1737237;81;21432;-70
2021/10/08 09:47:11;;;;;;;6.67;2.97;;;;;;;11.98;33.54;102586.85;1737918;81;21230;-71
2021/10/08 09:49:40;;;;;;;7.50;2.90;;;;;;;11.91;34.00;102576.19;1740054;81;21186;-70
2021/10/08 09:52:25;;;;;;;8.20;3.00;;;;;;;11.86;33.42;102572.51;1751635;81;21267;-71
2021/10/08 09:55:06;;;;;;;8.90;5.13;;;;;;;11.85;34.14;102570.88;1740452;80;21832;-71
2021/10/08 09:57:54;;;;;;;5.07;2.50;;;;;;;11.88;33.58;102566.42;1740918;81;21274;-71
2021/10/08 10:00:50;;;;;;;8.77;4.33;;;;;;;11.92;31.72;102562.27;1739113;81;21321;-70
2021/10/08 10:03:19;;;;;;;16.57;7.47;;;;;;;11.95;33.38;102564.52;1725886;81;21284;-69
2021/10/08 10:05:46;;;;;;;11.87;6.30;;;;;;;12.06;33.27;102557.11;1739420;81;21340;-71
2021/10/08 10:08:15;;;;;;;7.93;4.10;;;;;;;12.17;33.40;102555.58;1742995;81;21271;-70
2021/10/08 10:10:43;;;;;;;9.10;4.30;;;;;;;12.29;33.19;102564.55;1738743;81;21319;-71
2021/10/08 10:13:11;;;;;;;8.00;2.90;;;;;;;12.35;32.85;102554.30;1736069;81;21374;-70
2021/10/08 10:15:44;;;;;;;8.50;3.10;;;;;;;12.43;32.82;102558.55;1725081;82;21395;-70
2021/10/08 10:18:15;;;;;;;8.43;3.27;;;;;;;12.50;32.62;102560.64;1725044;81;21144;-71
2021/10/08 10:20:50;;;;;;;11.47;3.07;;;;;;;12.57;32.45;102552.05;1721400;81;21365;-70
2021/10/08 10:23:20;;;;;;;6.43;3.93;;;;;;;12.62;32.16;102547.34;1740192;80;21366;-69
2021/10/08 10:25:48;;;;;;;6.70;2.13;;;;;;;12.67;31.17;102541.63;1745055;81;21101;-71
2021/10/08 10:28:16;;;;;;;2.93;1.73;;;;;;;12.69;29.72;102533.34;1737988;81;21338;-71
2021/10/08 10:30:44;;;;;;;7.93;2.03;;;;;;;12.56;29.91;102530.80;1740795;81;21354;-71
2021/10/08 10:33:11;;;;;;;10.97;2.10;;;;;;;12.51;29.80;102525.30;1720483;81;21269;-71
2021/10/08 10:35:48;;;;;;;4.10;1.63;;;;;;;12.48;30.12;102541.83;1743858;81;21200;-70
2021/10/08 10:38:26;;;;;;;6.57;2.70;;;;;;;12.52;29.81;102534.98;1744391;81;21652;-71
2021/10/08 10:41:11;;;;;;;7.23;3.67;;;;;;;12.62;30.37;102528.05;1749208;81;21810;-71
2021/10/08 10:43:45;;;;;;;9.43;4.97;;;;;;;12.71;29.89;102532.62;1735308;81;22395;-70
2021/10/08 10:52:03;;;;;;;4.20;1.80;;;;;;;12.83;27.99;102525.48;1744865;81;21271;-73
2021/10/08 10:54:49;;;;;;;4.87;1.90;;;;;;;12.82;27.60;102525.69;1723758;82;21309;-71
2021/10/08 10:57:31;;;;;;;4.47;2.00;;;;;;;12.75;28.20;102532.46;1728582;81;21352;-72
2021/10/08 11:00:25;;;;;;;3.10;1.63;;;;;;;12.77;27.88;102523.69;1722205;82;21280;-70
2021/10/08 11:03:08;;;;;;;6.40;1.90;;;;;;;12.79;28.40;102519.42;1723199;81;21362;-71
2021/10/08 11:05:39;;;;;;;4.93;1.80;;;;;;;12.81;28.73;102522.72;1725276;81;21324;-71
2021/10/08 11:08:17;;;;;;;7.70;2.17;;;;;;;12.91;29.54;102518.45;1720566;82;21328;-70
2021/10/08 11:11:08;;;;;;;5.60;2.30;;;;;;;13.02;28.21;102522.77;1700253;82;21275;-72
2021/10/08 11:13:37;;;;;;;;;;;;;;;13.05;28.28;102520.98;1749398;81;21755;-71
2021/10/08 11:16:09;;;;;;;5.27;2.10;;;;;;;13.07;28.46;102513.54;1740894;81;20140;-71
2021/10/08 11:18:48;;;;;;;6.03;2.07;;;;;;;13.07;28.38;102520.24;1744685;80;21341;-71
2021/10/08 11:21:41;;;;;;;4.33;1.50;;;;;;;13.10;28.09;102522.48;1747665;81;21993;-71
2021/10/08 11:24:22;;;;;;;3.60;1.73;;;;;;;13.05;27.37;102514.27;1741664;81;22021;-70
2021/10/08 11:26:59;;;;;;;6.53;2.17;;;;;;;13.01;27.78;102515.25;1749632;81;21314;-71
2021/10/08 11:29:29;;;;;;;3.53;1.60;;;;;;;12.95;26.78;102517.48;1733335;81;21732;-70
2021/10/08 11:32:03;;;;;;;5.03;1.80;;;;;;;12.87;28.07;102515.94;1740515;81;21282;-69
2021/10/08 11:34:32;;;;;;;4.30;2.30;;;;;;;12.85;28.17;102511.83;1703919;82;21172;-71
2021/10/08 11:36:59;;;;;;;5.53;2.40;;;;;;;12.90;28.51;102515.48;1752271;81;21922;-70
2021/10/08 11:39:27;;;;;;;4.70;1.90;;;;;;;13.00;26.93;102514.15;1726697;81;21638;-71
2021/10/08 11:42:10;;;;;;;3.67;2.00;;;;;;;13.02;27.32;102514.72;1738044;81;21351;-69
2021/10/08 11:44:39;;;;;;;6.90;2.00;;;;;;;12.99;27.19;102509.80;1744294;80;21323;-70
2021/10/08 11:47:19;;;;;;;8.03;2.23;;;;;;;12.91;27.78;102520.33;1738596;81;21241;-70